Anderson Acres, Nevada
Current Conditions -  °F | °C
As of 5:15 AM on Thursday 30 Oct 2014 (Local Time) from KRTS Reporting Station
Clear Clear  
Wind Chill:   Ceiling: Unl
Heat Index:   Visibility: 10mi
Dew Point: -3°   Wind: 3mph
Humidity: 70%   Direction: 330°NNW
Pressure: 30.15"   Gusts: NA
Location:  39.7378°N, 119.889°W
Report Text: KRTS 301215Z AUTO 33003KT 10SM CLR 02/M03 A3015 RMK AO2
Loading
Personal Weather Stations






























Interactive Weather Map
Tropical Storm Tracking
New forecast layout! Learn more

10-Day Weather Forecast

Advertisements
Track Severe Weather on mobile